This is the latest recevied weather packets stored in our database for station/object PU2ONU-13. If no packets are shown the sender has not sent any weather packets the latest 10 day(s).
| Time | Temp. | Humidity | Pressure | Rain* | Wind** | Luminosity | Snow |
|---|---|---|---|---|---|---|---|
| 1777874414 | 26.11° C | 41% | 1019 hPa | - | - | - | - |
| 1777873213 | 26.11° C | 41% | 1019 hPa | - | - | - | - |
| 1777872014 | 26.11° C | 41% | 1020 hPa | - | - | - | - |
| 1777870812 | 26.67° C | 40% | 1019 hPa | - | - | - | - |
| 1777869612 | 26.67° C | 40% | 1019 hPa | - | - | - | - |
| 1777868413 | 27.22° C | 39% | 1020 hPa | - | - | - | - |
| 1777848014 | 28.89° C | 36% | 1020 hPa | - | - | - | - |
| 1777846813 | 28.89° C | 36% | 1021 hPa | - | - | - | - |
| 1777839612 | 31.11° C | 33% | 1020 hPa | - | - | - | - |
| 1777834814 | 32.78° C | 31% | 1018 hPa | - | - | - | - |
| 1777827614 | 30.56° C | 38% | 1019 hPa | - | - | - | - |
| 1777821614 | 28.33° C | 42% | 1021 hPa | - | - | - | - |
| 1777820415 | 28.89° C | 42% | 1020 hPa | - | - | - | - |
| 1777818013 | 28.89° C | 41% | 1022 hPa | - | - | - | - |
| 1777801213 | 25.56° C | 46% | 1019 hPa | - | - | - | - |
| 1777800012 | 26.67° C | 44% | 1019 hPa | - | - | - | - |
| 1777798813 | 26.11° C | 44% | 1019 hPa | - | - | - | - |
| 1777797612 | 27.22° C | 42% | 1018 hPa | - | - | - | - |
| 1777796412 | 27.22° C | 43% | 1019 hPa | - | - | - | - |
| 1777794013 | 27.22° C | 42% | 1018 hPa | - | - | - | - |
| 1777792813 | 26.67° C | 43% | 1018 hPa | - | - | - | - |
| 1777791614 | 27.22° C | 42% | 1018 hPa | - | - | - | - |
| 1777790413 | 27.78° C | 40% | 1018 hPa | - | - | - | - |
| 1777789213 | 28.89° C | 38% | 1019 hPa | - | - | - | - |
| 1777788014 | 26.67° C | 44% | 1017 hPa | - | - | - | - |
* Rain since midnight (hover to see other rain measurements)
** Current wind speed in m/s (hover to see current wind gust speed)